createdAt,value
2023-02-08T00:03:43.060Z,29.97
2023-02-08T00:08:48.463Z,26.93
2023-02-08T00:13:54.046Z,28.40
2023-02-08T00:19:01.757Z,28.60
2023-02-08T00:24:07.167Z,27.37
2023-02-08T00:29:12.354Z,27.43
2023-02-08T00:34:19.893Z,27.60
2023-02-08T00:39:29.185Z,26.53
2023-02-08T00:44:34.464Z,26.57
2023-02-08T00:49:42.051Z,26.30
2023-02-08T00:54:47.144Z,26.50
2023-02-08T00:59:52.165Z,28.20
2023-02-08T01:05:00.221Z,26.53
2023-02-08T01:10:06.415Z,28.77
2023-02-08T01:15:12.694Z,26.00
2023-02-08T01:20:20.430Z,28.17
2023-02-08T01:25:25.514Z,25.03
2023-02-08T01:30:30.434Z,27.50
2023-02-08T01:35:38.016Z,27.37
2023-02-08T01:40:43.372Z,27.90
2023-02-08T01:45:49.397Z,26.90
2023-02-08T01:51:01.542Z,26.40
2023-02-08T01:56:12.685Z,26.53
2023-02-08T02:01:18.796Z,27.20
2023-02-08T02:06:31.452Z,27.13
2023-02-08T02:11:36.462Z,28.17
2023-02-08T02:16:41.442Z,26.30
2023-02-08T02:22:00.523Z,24.07
2023-02-08T02:27:32.961Z,23.57
2023-02-08T02:32:54.021Z,25.30
2023-02-08T02:38:09.348Z,23.63
2023-02-08T02:43:32.248Z,25.23
2023-02-08T02:48:45.527Z,23.43
2023-02-08T02:53:58.154Z,23.20
2023-02-08T02:59:08.364Z,24.17
2023-02-08T03:04:22.365Z,23.80
2023-02-08T03:09:50.774Z,25.17
2023-02-08T03:15:02.322Z,23.80
2023-02-08T03:20:15.102Z,22.27
2023-02-08T03:25:24.034Z,24.13
2023-02-08T03:30:46.114Z,23.00
2023-02-08T03:35:59.382Z,23.57
2023-02-08T03:41:11.110Z,22.40
2023-02-08T03:46:19.968Z,23.70
2023-02-08T03:51:31.591Z,22.43
2023-02-08T03:56:43.692Z,23.53
2023-02-08T04:01:54.645Z,25.37
2023-02-08T04:07:02.606Z,23.97
2023-02-08T04:12:08.854Z,27.83
2023-02-08T04:17:13.784Z,30.53
2023-02-08T04:22:21.393Z,30.00
2023-02-08T04:27:26.397Z,34.80
2023-02-08T04:32:31.303Z,31.47
2023-02-08T04:37:38.891Z,31.70
2023-02-08T04:42:50.832Z,32.23
2023-02-08T04:47:55.696Z,36.17
2023-02-08T04:53:06.621Z,31.00
2023-02-08T04:58:11.579Z,32.90
2023-02-08T05:03:16.594Z,31.70
2023-02-08T05:08:25.376Z,28.47
2023-02-08T05:13:30.368Z,32.13
2023-02-08T05:18:35.270Z,33.73
2023-02-08T05:23:43.527Z,30.33
2023-02-08T05:28:49.734Z,31.80
2023-02-08T05:33:55.787Z,32.47
2023-02-08T05:39:03.397Z,33.07
2023-02-08T05:44:08.759Z,32.90
2023-02-08T05:49:13.787Z,29.70
2023-02-08T05:54:21.750Z,31.23
2023-02-08T05:59:27.489Z,31.90
2023-02-08T06:04:32.801Z,30.07
2023-02-08T06:09:40.619Z,28.97
2023-02-08T06:14:46.186Z,27.70
2023-02-08T06:19:51.632Z,28.17
2023-02-08T06:24:59.701Z,27.53
2023-02-08T06:30:04.934Z,29.17
2023-02-08T06:35:10.978Z,31.03
2023-02-08T06:40:21.067Z,31.37
2023-02-08T06:45:26.023Z,30.63
2023-02-08T06:50:31.193Z,30.67
2023-02-08T06:55:38.907Z,29.20
2023-02-08T07:00:45.465Z,29.13
2023-02-08T07:06:11.671Z,28.50
2023-02-08T07:11:25.504Z,28.37
2023-02-08T07:16:30.820Z,27.30
2023-02-08T07:21:36.180Z,28.97
2023-02-08T07:26:43.982Z,27.50
2023-02-08T07:31:50.549Z,29.80
2023-02-08T07:36:55.521Z,27.63
2023-02-08T07:42:08.285Z,27.77
2023-02-08T07:47:20.005Z,27.63
2023-02-08T07:52:34.283Z,29.27
2023-02-08T07:57:47.305Z,27.47
2023-02-08T08:02:53.757Z,29.57
2023-02-08T08:07:58.880Z,28.83
2023-02-08T08:13:09.422Z,26.10
2023-02-08T08:18:14.864Z,25.30
2023-02-08T08:23:21.090Z,25.33
2023-02-08T08:28:29.578Z,22.10
2023-02-08T08:33:34.784Z,22.67
2023-02-08T08:38:44.067Z,22.60
2023-02-08T08:43:56.346Z,22.23
2023-02-08T08:49:05.386Z,22.37
2023-02-08T08:54:16.365Z,22.00
2023-02-08T08:59:24.249Z,20.27
2023-02-08T09:04:29.608Z,21.10
2023-02-08T09:09:38.063Z,20.40
2023-02-08T09:14:47.059Z,21.37
2023-02-08T09:19:53.028Z,19.73
2023-02-08T09:24:58.128Z,20.10
2023-02-08T09:30:06.044Z,20.67
2023-02-08T09:35:13.485Z,19.83
2023-02-08T09:40:27.687Z,19.07
2023-02-08T09:45:58.934Z,19.73
2023-02-08T09:51:12.130Z,21.10
2023-02-08T09:56:20.303Z,19.77
2023-02-08T10:01:30.695Z,20.20
2023-02-08T10:06:36.820Z,18.83
2023-02-08T10:11:54.027Z,19.00
2023-02-08T10:17:11.587Z,19.07
2023-02-08T10:22:30.147Z,21.00
2023-02-08T10:28:09.592Z,19.87
2023-02-08T10:33:34.873Z,19.50
2023-02-08T10:38:46.976Z,19.87
2023-02-08T10:43:58.431Z,19.47
2023-02-08T10:49:17.424Z,21.17
2023-02-08T10:54:22.346Z,20.53
2023-02-08T10:59:31.727Z,20.33
2023-02-08T11:05:04.095Z,19.13
2023-02-08T11:10:30.479Z,20.27
2023-02-08T11:15:43.138Z,19.47
2023-02-08T11:20:55.404Z,18.60
2023-02-08T11:26:20.421Z,19.10
2023-02-08T11:31:25.399Z,18.33
2023-02-08T11:36:37.087Z,19.43
2023-02-08T11:41:48.244Z,16.83
2023-02-08T11:46:54.773Z,17.97
2023-02-08T11:52:02.637Z,18.50
2023-02-08T11:57:15.836Z,17.37
2023-02-08T12:02:32.546Z,15.87
2023-02-08T12:07:58.584Z,17.53
2023-02-08T12:13:22.006Z,17.90
2023-02-08T12:18:49.463Z,17.43
2023-02-08T12:24:02.806Z,16.37
2023-02-08T12:29:45.668Z,18.23
2023-02-08T12:35:06.662Z,17.47
2023-02-08T12:40:39.776Z,16.13
2023-02-08T12:46:07.116Z,15.90
2023-02-08T12:51:23.938Z,16.67
2023-02-08T12:56:38.352Z,16.83
2023-02-08T13:01:49.213Z,16.50
2023-02-08T13:06:58.988Z,16.40
2023-02-08T13:12:15.850Z,15.73
2023-02-08T13:17:25.805Z,15.47
2023-02-08T13:22:34.609Z,15.20
2023-02-08T13:27:42.734Z,16.03
2023-02-08T13:32:50.776Z,15.83
2023-02-08T13:38:08.454Z,14.80
2023-02-08T13:43:35.182Z,14.93
2023-02-08T13:48:47.987Z,14.20
2023-02-08T13:54:13.614Z,13.03
2023-02-08T13:59:42.243Z,15.03
2023-02-08T14:04:48.559Z,15.17
2023-02-08T14:10:09.602Z,16.83
2023-02-08T14:15:34.059Z,16.10
2023-02-08T14:20:42.884Z,15.13
2023-02-08T14:25:51.881Z,14.43
2023-02-08T14:31:02.651Z,12.83
2023-02-08T14:36:11.695Z,13.57
2023-02-08T14:41:51.184Z,13.77
2023-02-08T14:47:01.054Z,15.17
2023-02-08T14:52:15.864Z,13.37
2023-02-08T14:57:28.371Z,13.20
2023-02-08T15:02:39.673Z,13.83
2023-02-08T15:07:51.768Z,13.10
2023-02-08T15:13:00.852Z,13.67
2023-02-08T15:18:19.112Z,13.50
2023-02-08T15:23:25.542Z,13.63
2023-02-08T15:28:33.076Z,11.80
2023-02-08T15:33:42.651Z,13.47
2023-02-08T15:38:48.329Z,15.27
2023-02-08T15:43:53.375Z,14.13
2023-02-08T15:49:03.795Z,11.90
2023-02-08T15:54:09.511Z,11.27
2023-02-08T15:59:22.927Z,13.03
2023-02-08T16:04:33.010Z,12.70
2023-02-08T16:09:39.433Z,12.80
2023-02-08T16:14:52.429Z,14.77
2023-02-08T16:20:02.957Z,14.43
2023-02-08T16:25:27.020Z,16.17
2023-02-08T16:30:34.766Z,19.60
2023-02-08T16:35:46.430Z,16.43
2023-02-08T16:40:53.610Z,13.80
2023-02-08T16:46:31.022Z,13.73
2023-02-08T16:51:43.355Z,15.33
2023-02-08T16:56:53.760Z,15.30
2023-02-08T17:01:59.066Z,13.60
2023-02-08T17:07:09.858Z,13.03
2023-02-08T17:12:22.522Z,14.37
2023-02-08T17:17:29.349Z,15.03
2023-02-08T17:22:39.533Z,16.37
2023-02-08T17:27:44.463Z,16.53
2023-02-08T17:32:50.047Z,14.53
2023-02-08T17:37:59.402Z,14.70
2023-02-08T17:43:05.343Z,14.30
2023-02-08T17:48:13.358Z,13.30
2023-02-08T17:53:21.424Z,13.80
2023-02-08T17:58:28.638Z,14.70
2023-02-08T18:03:36.362Z,15.17
2023-02-08T18:08:44.231Z,14.60
2023-02-08T18:13:54.962Z,15.07
2023-02-08T18:19:01.948Z,14.57
2023-02-08T18:24:10.126Z,15.00
2023-02-08T18:29:17.263Z,15.10
2023-02-08T18:34:23.299Z,16.20
2023-02-08T18:39:33.222Z,16.37
2023-02-08T18:44:39.526Z,18.00
2023-02-08T18:49:44.899Z,16.80
2023-02-08T18:54:53.665Z,16.40
2023-02-08T19:00:01.250Z,16.73
2023-02-08T19:05:06.499Z,15.73
2023-02-08T19:10:15.239Z,15.00
2023-02-08T19:15:20.292Z,14.90
2023-02-08T19:20:25.808Z,16.97
2023-02-08T19:25:34.849Z,16.00
2023-02-08T19:30:40.095Z,16.97
2023-02-08T19:35:45.587Z,16.77
2023-02-08T19:40:58.069Z,16.63
2023-02-08T19:46:04.186Z,16.47
2023-02-08T19:51:12.524Z,15.17
2023-02-08T19:56:22.307Z,17.27
2023-02-08T20:01:30.539Z,14.87
2023-02-08T20:06:48.062Z,16.60
2023-02-08T20:11:59.799Z,13.93
2023-02-08T20:17:05.870Z,15.63
2023-02-08T20:22:12.692Z,13.70
2023-02-08T20:27:23.004Z,13.70
2023-02-08T20:32:30.015Z,13.97
2023-02-08T20:37:36.030Z,13.73
2023-02-08T20:42:44.820Z,12.60
2023-02-08T20:47:49.837Z,13.17
2023-02-08T20:52:55.729Z,11.87
2023-02-08T20:58:03.601Z,10.70
2023-02-08T21:03:11.548Z,11.50
2023-02-08T21:08:16.595Z,10.70
2023-02-08T21:13:26.335Z,9.43
2023-02-08T21:18:31.381Z,9.90
2023-02-08T21:23:37.406Z,9.50
2023-02-08T21:28:45.301Z,8.90
2023-02-08T21:33:51.193Z,8.60
2023-02-08T21:38:56.577Z,8.47
2023-02-08T21:44:08.258Z,8.37
2023-02-08T21:49:26.288Z,7.87
2023-02-08T21:54:49.354Z,8.47
2023-02-08T21:59:59.760Z,8.40
2023-02-08T22:05:06.000Z,9.13
2023-02-08T22:10:13.560Z,9.47
2023-02-08T22:15:22.871Z,9.40
2023-02-08T22:20:30.147Z,9.40
2023-02-08T22:25:36.117Z,9.30
2023-02-08T22:30:44.808Z,9.73
2023-02-08T22:35:50.196Z,9.47
2023-02-08T22:40:55.764Z,9.30
2023-02-08T22:46:06.558Z,9.23
2023-02-08T22:51:13.479Z,9.73
2023-02-08T22:56:22.444Z,9.23
2023-02-08T23:01:30.381Z,10.00
2023-02-08T23:06:35.879Z,10.80
2023-02-08T23:11:41.132Z,9.97
2023-02-08T23:16:48.669Z,8.63
2023-02-08T23:21:53.798Z,9.17
2023-02-08T23:26:58.917Z,9.70
2023-02-08T23:32:06.637Z,9.20
2023-02-08T23:37:11.623Z,10.10
2023-02-08T23:42:25.651Z,10.53
2023-02-08T23:47:33.546Z,10.73
2023-02-08T23:52:39.777Z,9.63
2023-02-08T23:57:44.925Z,10.23
